Logo AVAMET
Benvolgut visitant, si us plau, ingressa Recuperar contrasenya

Albatera

Dades diàries. Acumulats / Últims 30 dies disponibles

Data Temperatura (°C) Humitat rel. (%) Pressió rel. (hPa) Vent (km/h) Precipitació
Mínima Mitjana Màxima Amplitud
tèrmica
Mínima Mitjana Màxima Mínima Mitjana Màxima Predom. Mitjana Ràfega
màxima
Total
(mm)
Índex-n
Mínima Mitjana Màxima Mínima Mitjana Màxima n
0 a 1
P0 max
mm 5'
Dades mensuals acumulades fins l'últim dia disponible
11/2019 6,7 12,5 19,8 16,3 15,1 20,5 28,8 22,1 17 41 79 1.001 1.012 1.021   9,3 72,4 3,6
Dades anuals acumulades fins l'últim dia disponible
2019 2,0 13,4 24,3 18,9 13,7 24,9 41,0 39,0 0 48 87 0 954 1.035   6,5 78,9 367,0
Últims 30 dies disponibles
19-11-2019 6,7     11,5     16,6 9,9 29 46 60 1.015 1.016 1.018 E 5,8 29,0 0,0
18-11-2019 8,6     12,8     16,8 8,2 33 53 79 1.007 1.011 1.017 ESE 7,8 33,8 3,0 0,40
17-11-2019 8,3     12,8     18,1 9,8 27 41 61 1.009 1.014 1.016 ESE 6,9 30,6 0,0
16-11-2019 9,1     12,6     16,1 7,0 26 36 49 1.007 1.012 1.016 E 8,9 32,2 0,0
15-11-2019 8,6     11,8     15,1 6,5 30 43 56 1.002 1.005 1.007 E 7,5 40,2 0,0
14-11-2019 10,6     12,9     16,9 6,3 39 56 75 1.001 1.004 1.011 SE 5,8 51,5 0,4
13-11-2019 13,7     18,1     23,1 9,4 29 43 66 1.006 1.009 1.013 ESE 8,4 49,9 0,0
12-11-2019 11,7     15,6     19,6 7,9 20 32 49 1.011 1.012 1.013 ESE 10,9 41,8 0,0
11-11-2019 9,8     14,3     18,2 8,4 29 38 52 1.012 1.014 1.015 ESE 11,0 49,9 0,0
10-11-2019 13,0     15,1     17,1 4,1 24 37 55 1.011 1.013 1.014 ESE 15,9 72,4 0,2
09-11-2019 13,3     15,8     20,3 7,0 17 34 55 1.014 1.018 1.021 ESE 12,1 46,7 0,0
08-11-2019 11,6     14,9     17,7 6,1 24 34 46 1.011 1.014 1.019 ESE 13,6 59,5 0,0
07-11-2019 10,9     16,6     22,6 11,7 28 43 56 1.008 1.011 1.014 SE 7,0 38,6 0,0
06-11-2019 13,7     17,0     21,2 7,5 23 38 53 1.013 1.014 1.016 E 9,3 38,6 0,0
05-11-2019 14,7     18,2     21,3 6,6 26 40 61 1.007 1.011 1.015 E 11,1 48,3 0,0
04-11-2019 16,6     21,7     26,7 10,1 30 40 55 1.007 1.010 1.013 E 8,4 40,2 0,0
03-11-2019 18,0     22,0     26,4 8,4 28 41 58 1.004 1.006 1.012 ESE 10,8 62,8 0,0
02-11-2019 18,4     22,3     27,3 8,9 28 46 58 1.006 1.011 1.015 ESE 7,1 38,6 0,0
01-11-2019 19,8     24,0     28,8 9,0 34 47 58 1.015 1.018 1.021 ESE 8,1 32,2 0,0
31-10-2019 18,8     23,0     27,6 8,8 34 47 64 1.019 1.021 1.022 E 8,0 38,6 0,0
30-10-2019 16,3     20,7     27,7 11,4 30 58 73 1.019 1.020 1.022 ESE 5,2 22,5 0,0
29-10-2019 13,9     20,2     27,9 14,0 31 58 75 1.015 1.017 1.019 SSE 4,9 25,7 0,0
28-10-2019 13,1     19,6     22,6 9,5 55 62 73 1.017 1.017 1.019 ESE 2,9 16,1 0,0
24-09-2019 18,4     25,8     33,9 15,5 19 50 74 1.014 1.017 1.019 NE 5,6 24,1 0,0
23-09-2019 18,8     24,4     30,7 11,9 NE 4,7 27,4 0,0
22-09-2019 21,7     26,2     32,1 10,4 32 60 79 1.012 1.013 1.016 W 5,1 30,6 0,0
21-09-2019 22,1     25,4     29,2 7,1 45 61 73 1.012 1.013 1.015 NE 3,7 24,1 0,0
20-09-2019 22,0     24,4     27,3 5,3 57 66 74 1.014 1.016 1.017 SSW 6,9 32,2 0,0
19-09-2019 18,9     24,0     28,7 9,8 44 64 76 1.015 1.017 1.018 WSW 4,0 20,9 0,0
18-09-2019 20,2     24,3     29,8 9,6 54 67 73 1.014 1.016 1.016 WSW 4,2 19,3 0,0
Últims 13 mesos disponibles
09/2019 16,7 20,4 24,3 24,4 22,1 28,9 34,1 17,4 37 60 79 1.010 1.017 1.022 NE 6,2 56,3 198,8
06/2019 12,8 17,3 21,3 24,1 24,6 30,5 36,4 23,6 28 48 61 1.009 1.015 1.022 S 6,7 49,9 0,4
05/2019 11,2 14,3 19,4 20,1 21,3 26,4 32,9 21,7 34 54 66 1.006 1.015 1.025 S 6,5 57,9 3,0
04/2019 8,2 11,3 14,2 16,2 14,5 21,8 30,0 21,8 43 58 83 1.000 1.013 1.025 NE 6,4 64,4 123,2
03/2019 5,6 8,0 12,7 14,6 15,3 21,4 28,6 23,0 38 52 81 1.011 1.023 1.030 NE 5,4 49,9 19,0
02/2019 4,6 6,6 11,1 12,7 15,1 19,6 26,8 22,2 27 50 69 997 1.024 1.033 SSE 7,3 78,9 0,8
01/2019 2,0 7,1 12,7 12,5 13,7 18,0 22,5 20,5 36 48 70 1.005 1.016 1.028 E 7,5 53,1 3,4
11/2018 8,1 8,7 9,8 14,3 19,5 21,2 22,9 14,8 51 57 77 1.007 1.015 1.020 E 5,2 30,6 3,2
10/2018 7,1 14,1 17,0 19,3 13,7 25,6 29,9 22,8 35 65 88 1.000 1.014 1.025 SSE 5,2 53,1 45,2
Tots els anys disponibles
Temperatura (°C)
Humitat relativa (%)
Velocitat del vent i ràfega màxima (km/h)
Direcció del vent (°)
Pressió (hPa)
Precipitació (mm)
Nota sobre les dades: s'avisa a l'usuari de la provisionalitat i no oficialitat d'aquestes dades
Logo AVAMET blanc
Web allotjada a Sollutia
Llicència de Creative CommonsLa web d'AVAMET i els seus continguts estan subjectes a una llicència de
Reconeixement - No Comercial - Compartir igual
Últimes estacions: Xàbia - Alt de la Granadella (Soci), Villena - Sierra de Salinas (Soci), Sueca - Centre (Inforatge), Xàbia - La Plana (Soci), - - -